MMPR/PVR METAR and TAF weather

Enter ICAO airport designator
Station Type Date Time Source
MMPR METAR 2020/07/05 02:49 UTC NOAA

MMPR 050249Z 11002KT 12SM FEW025 SCT110 OVC230 28/24 A2988 RMK SLP116 52018 901 8/463 DSNT LTGIC NW AND OCNL DROPS


Station Type Date Time Source
MMPR Decoded METAR 2020/07/05 02:49 UTC NOAA

Puerto Vallarta / Lic, Mexico (MMPR) 20-41N 105-15W
Jul 04, 2020 - 10:49 PM EDT / 2020.07.05 0249 UTC
Wind: from the ESE (110 degrees) at 2 MPH (2 KT):0
Visibility: 12 mile(s):0
Sky conditions: overcast
Weather: Lightning observed
Temperature: 82 F (28 C)
Dew Point: 75 F (24 C)
Relative Humidity: 78%
Pressure (altimeter): 29.88 in. Hg (1011 hPa)
Pressure tendency: 0.05 inches (1.8 hPa) higher than three hours ago
ob: MMPR 050249Z 11002KT 12SM FEW025 SCT110 OVC230 28/24 A2988 RMK SLP116 52018 901 8/463 DSNT LTGIC NW AND OCNL DROPS
cycle: 3

Station Type Date Time Source
MMPR TAF 2020/07/04 18:45 UTC NOAA

TAF MMPR 041638Z 0418/0524 21008KT P6SM SCT020 TX32/0419Z TN26/0512Z
BECMG 0420/0421 21015KT
FM050300 02005KT P6SM SKC
BECMG 0516/0517 21008KT

Example: see airport list